Time;durP1;ratioP1;P1;durP2;ratioP2;P2;SDS_P1;SDS_P2;PMS_P1;PMS_P2;Temp;Humidity;BMP_temperature;BMP_pressure;BME280_temperature;BME280_humidity;BME280_pressure;Samples;Min_cycle;Max_cycle;Signal;HPM_P1;HPM_P2
2023/12/04 00:00:18;;;;;;;18.13;8.27;;;;;;;;;;5028415;28;20075;-85
2023/12/04 00:02:44;;;;;;;12.68;7.65;;;;;;;;;;5008108;28;20037;-85
2023/12/04 00:05:10;;;;;;;16.98;7.82;;;;;;;;;;5026728;28;20125;-85
2023/12/04 00:07:36;;;;;;;17.02;8.00;;;;;;;;;;5029369;28;20443;-85
2023/12/04 00:10:02;;;;;;;19.35;8.60;;;;;;;;;;5026597;28;20037;-84
2023/12/04 00:12:28;;;;;;;14.93;6.63;;;;;;;;;;5028882;28;20049;-85
2023/12/04 00:14:54;;;;;;;18.17;8.48;;;;;;;;;;5041759;28;20500;-85
2023/12/04 00:17:20;;;;;;;20.13;7.90;;;;;;;;;;5025476;28;20051;-85
2023/12/04 00:19:46;;;;;;;18.73;8.35;;;;;;;;;;5029690;28;20514;-85
2023/12/04 00:22:12;;;;;;;17.58;7.88;;;;;;;;;;5029400;28;20053;-84
2023/12/04 00:24:38;;;;;;;13.93;6.28;;;;;;;;;;5022152;28;20042;-85
2023/12/04 00:27:05;;;;;;;20.98;8.48;;;;;;;;;;5024660;28;20036;-85
2023/12/04 00:29:31;;;;;;;15.07;8.75;;;;;;;;;;5024770;28;20412;-85
2023/12/04 00:31:57;;;;;;;15.35;7.72;;;;;;;;;;5022132;28;20044;-85
2023/12/04 00:34:23;;;;;;;17.38;8.60;;;;;;;;;;5026929;28;20044;-85
2023/12/04 00:36:49;;;;;;;14.60;7.28;;;;;;;;;;5023133;28;20091;-85
2023/12/04 00:39:15;;;;;;;10.75;5.72;;;;;;;;;;5024555;28;20036;-85
2023/12/04 00:41:41;;;;;;;13.50;6.80;;;;;;;;;;5021519;28;20037;-85
2023/12/04 00:44:07;;;;;;;17.63;7.25;;;;;;;;;;5022911;28;20041;-84
2023/12/04 00:46:33;;;;;;;17.02;8.48;;;;;;;;;;5041392;28;20052;-85
2023/12/04 00:48:59;;;;;;;17.10;8.68;;;;;;;;;;5021819;28;20058;-85
2023/12/04 00:51:26;;;;;;;16.70;8.57;;;;;;;;;;5023159;28;20473;-85
2023/12/04 00:53:52;;;;;;;17.98;9.00;;;;;;;;;;5016866;28;20072;-85
2023/12/04 00:56:20;;;;;;;17.92;7.88;;;;;;;;;;5020234;28;20081;-85
2023/12/04 00:58:46;;;;;;;13.88;6.97;;;;;;;;;;5018128;28;20366;-85
2023/12/04 01:01:12;;;;;;;17.70;7.15;;;;;;;;;;5018681;28;20072;-85
2023/12/04 01:03:38;;;;;;;16.25;6.95;;;;;;;;;;5004790;28;20030;-85
2023/12/04 01:06:04;;;;;;;16.15;7.82;;;;;;;;;;5003224;28;20559;-85
2023/12/04 01:08:30;;;;;;;16.67;8.35;;;;;;;;;;5021547;28;20553;-85
2023/12/04 01:10:56;;;;;;;19.17;9.95;;;;;;;;;;5016503;28;20137;-85
2023/12/04 01:13:22;;;;;;;17.77;8.40;;;;;;;;;;5018012;28;20142;-84
2023/12/04 01:15:49;;;;;;;17.85;7.68;;;;;;;;;;5004014;28;20452;-85
2023/12/04 01:18:15;;;;;;;16.85;8.57;;;;;;;;;;5019946;28;20042;-85
2023/12/04 01:20:41;;;;;;;15.43;7.78;;;;;;;;;;5024208;28;20472;-85
2023/12/04 01:23:07;;;;;;;16.23;8.05;;;;;;;;;;5022102;28;20067;-85
2023/12/04 01:25:33;;;;;;;16.27;8.85;;;;;;;;;;5002533;28;20052;-85
2023/12/04 01:27:59;;;;;;;16.27;7.18;;;;;;;;;;5022546;28;20072;-85
2023/12/04 01:30:25;;;;;;;14.15;6.18;;;;;;;;;;5022314;28;20038;-85
2023/12/04 01:32:51;;;;;;;16.17;7.90;;;;;;;;;;5020805;28;20060;-85
2023/12/04 01:35:18;;;;;;;14.57;6.43;;;;;;;;;;5021238;28;20046;-85
2023/12/04 01:37:44;;;;;;;16.58;7.80;;;;;;;;;;5008736;28;20041;-85
2023/12/04 01:40:10;;;;;;;13.95;6.95;;;;;;;;;;5018137;28;20050;-85
2023/12/04 01:42:36;;;;;;;15.45;6.65;;;;;;;;;;5022314;28;20133;-85
2023/12/04 01:45:02;;;;;;;15.98;7.10;;;;;;;;;;5019304;28;20076;-85
2023/12/04 01:47:29;;;;;;;14.48;6.50;;;;;;;;;;5025090;28;20049;-85
2023/12/04 01:49:55;;;;;;;12.88;6.47;;;;;;;;;;4989820;28;20441;-85
2023/12/04 01:52:21;;;;;;;15.35;8.10;;;;;;;;;;5008062;28;20077;-85
2023/12/04 01:54:47;;;;;;;13.35;7.38;;;;;;;;;;4992077;28;20034;-85
2023/12/04 01:57:13;;;;;;;18.33;8.07;;;;;;;;;;4985697;28;20050;-85
2023/12/04 01:59:39;;;;;;;16.17;7.30;;;;;;;;;;5007873;28;20034;-85
2023/12/04 02:02:05;;;;;;;13.20;6.28;;;;;;;;;;4989783;28;20117;-85
2023/12/04 02:04:32;;;;;;;18.85;7.63;;;;;;;;;;5005789;28;20050;-84
2023/12/04 02:06:58;;;;;;;12.25;6.05;;;;;;;;;;5003452;28;20057;-85
2023/12/04 02:09:24;;;;;;;17.20;7.25;;;;;;;;;;5012275;28;20416;-85
2023/12/04 02:11:52;;;;;;;13.73;6.85;;;;;;;;;;5012422;28;20045;-85
2023/12/04 02:14:18;;;;;;;15.13;6.85;;;;;;;;;;5012976;28;20512;-85
2023/12/04 02:16:45;;;;;;;14.18;6.90;;;;;;;;;;5013805;28;20034;-85
2023/12/04 02:19:14;;;;;;;14.05;7.05;;;;;;;;;;4994819;28;20516;-85
2023/12/04 02:21:40;;;;;;;14.90;6.55;;;;;;;;;;5009115;28;20505;-85
2023/12/04 02:24:06;;;;;;;15.40;7.60;;;;;;;;;;5000683;28;20030;-85
2023/12/04 02:26:35;;;;;;;12.75;6.45;;;;;;;;;;5005750;28;20045;-84
2023/12/04 02:29:03;;;;;;;12.70;6.82;;;;;;;;;;5000888;28;20034;-85
2023/12/04 02:31:30;;;;;;;14.55;6.57;;;;;;;;;;5004350;28;20096;-85
2023/12/04 02:33:56;;;;;;;15.85;7.65;;;;;;;;;;5003645;28;20036;-84
2023/12/04 02:36:24;;;;;;;13.93;7.30;;;;;;;;;;5001835;28;20050;-84
2023/12/04 02:38:51;;;;;;;15.02;7.93;;;;;;;;;;5000849;28;20042;-85
2023/12/04 02:41:17;;;;;;;16.38;7.97;;;;;;;;;;5005079;28;20093;-85
2023/12/04 02:43:43;;;;;;;16.52;7.65;;;;;;;;;;5001556;28;20038;-84
2023/12/04 02:46:10;;;;;;;14.50;7.63;;;;;;;;;;5005068;28;20041;-84
2023/12/04 02:48:36;;;;;;;13.55;7.03;;;;;;;;;;5003061;28;20053;-84
2023/12/04 02:51:03;;;;;;;15.05;6.82;;;;;;;;;;5005052;28;20072;-85
2023/12/04 02:53:28;;;;;;;17.65;8.73;;;;;;;;;;5002595;28;20045;-85
2023/12/04 02:55:54;;;;;;;15.65;7.50;;;;;;;;;;5009385;28;20042;-85
2023/12/04 02:58:20;;;;;;;12.65;6.65;;;;;;;;;;5002258;28;20038;-85
2023/12/04 03:00:47;;;;;;;15.43;7.55;;;;;;;;;;5001674;28;20093;-85
2023/12/04 03:03:13;;;;;;;15.07;8.30;;;;;;;;;;5001797;28;20125;-85
2023/12/04 03:05:39;;;;;;;14.68;7.85;;;;;;;;;;5003971;28;20102;-85
2023/12/04 03:08:04;;;;;;;17.92;7.28;;;;;;;;;;4986788;28;20033;-85
2023/12/04 03:10:30;;;;;;;12.40;5.90;;;;;;;;;;5006214;28;20068;-84
2023/12/04 03:12:56;;;;;;;16.77;7.57;;;;;;;;;;5003285;28;20088;-84
2023/12/04 03:15:22;;;;;;;15.95;7.80;;;;;;;;;;4983321;28;20049;-84
2023/12/04 03:17:48;;;;;;;18.45;7.55;;;;;;;;;;5003885;28;20121;-85
2023/12/04 03:20:14;;;;;;;13.98;7.88;;;;;;;;;;5006475;28;20037;-85
2023/12/04 03:22:40;;;;;;;17.05;7.35;;;;;;;;;;5006883;28;20045;-84
2023/12/04 03:25:07;;;;;;;11.98;5.57;;;;;;;;;;5005147;28;20048;-84
2023/12/04 03:27:33;;;;;;;11.55;6.85;;;;;;;;;;5002265;28;20111;-85
2023/12/04 03:29:59;;;;;;;18.25;6.38;;;;;;;;;;5000767;28;20039;-85
2023/12/04 03:32:25;;;;;;;15.15;6.85;;;;;;;;;;5003433;28;20379;-85
2023/12/04 03:34:51;;;;;;;15.65;6.90;;;;;;;;;;5005105;28;20049;-85
2023/12/04 03:37:17;;;;;;;17.42;7.60;;;;;;;;;;5004545;28;20049;-84
2023/12/04 03:39:43;;;;;;;14.23;6.95;;;;;;;;;;5006012;28;20038;-85
2023/12/04 03:42:09;;;;;;;14.95;6.97;;;;;;;;;;5000829;28;20322;-85
2023/12/04 03:44:34;;;;;;;14.57;6.97;;;;;;;;;;5000424;28;20042;-85
2023/12/04 03:47:00;;;;;;;11.57;5.32;;;;;;;;;;5004274;28;20033;-85
2023/12/04 03:49:26;;;;;;;10.85;5.70;;;;;;;;;;5017050;28;20099;-84
2023/12/04 03:51:52;;;;;;;13.50;6.78;;;;;;;;;;5020671;28;20048;-84
2023/12/04 03:54:18;;;;;;;11.75;5.78;;;;;;;;;;5023698;28;20049;-84
2023/12/04 03:56:44;;;;;;;15.85;6.55;;;;;;;;;;5006666;28;20037;-84
2023/12/04 03:59:10;;;;;;;15.00;6.47;;;;;;;;;;5001484;28;20396;-84
2023/12/04 04:01:36;;;;;;;11.75;5.68;;;;;;;;;;5023082;28;20484;-84
2023/12/04 04:04:03;;;;;;;12.77;6.65;;;;;;;;;;5021575;28;20033;-84
2023/12/04 04:06:29;;;;;;;13.00;6.70;;;;;;;;;;5023643;28;20038;-84
2023/12/04 04:08:55;;;;;;;13.27;6.25;;;;;;;;;;5020624;28;20061;-84
2023/12/04 04:11:21;;;;;;;13.98;6.60;;;;;;;;;;5020553;28;20100;-84
2023/12/04 04:13:47;;;;;;;13.20;5.93;;;;;;;;;;5024024;28;20527;-84
2023/12/04 04:16:15;;;;;;;11.68;5.72;;;;;;;;;;5022853;28;20393;-84
2023/12/04 04:18:42;;;;;;;12.05;5.57;;;;;;;;;;5018523;28;20440;-84
2023/12/04 04:21:08;;;;;;;13.60;5.32;;;;;;;;;;5010764;28;20048;-84
2023/12/04 04:23:34;;;;;;;14.10;6.18;;;;;;;;;;5021891;28;20096;-84
2023/12/04 04:26:00;;;;;;;13.10;6.18;;;;;;;;;;5023086;28;20462;-84
2023/12/04 04:28:26;;;;;;;16.67;7.38;;;;;;;;;;5005937;28;20400;-84
2023/12/04 04:30:52;;;;;;;14.77;6.78;;;;;;;;;;5005968;28;20041;-84
2023/12/04 04:33:18;;;;;;;13.75;6.85;;;;;;;;;;5019035;28;20052;-84
2023/12/04 04:35:44;;;;;;;15.20;6.95;;;;;;;;;;5022329;28;20362;-84
2023/12/04 04:38:10;;;;;;;13.32;5.68;;;;;;;;;;5021661;28;20045;-84
2023/12/04 04:40:37;;;;;;;16.27;6.22;;;;;;;;;;5023120;28;20449;-84
2023/12/04 04:43:03;;;;;;;13.70;5.55;;;;;;;;;;5024379;28;20038;-84
2023/12/04 04:45:29;;;;;;;13.60;5.13;;;;;;;;;;5024023;28;20047;-84
2023/12/04 04:47:55;;;;;;;13.70;5.82;;;;;;;;;;5006576;28;20037;-84
2023/12/04 04:50:21;;;;;;;15.02;5.97;;;;;;;;;;5026821;28;20495;-84
2023/12/04 04:52:47;;;;;;;15.15;6.32;;;;;;;;;;5025362;28;20049;-84
2023/12/04 04:55:13;;;;;;;14.25;6.05;;;;;;;;;;5028404;28;20037;-84
2023/12/04 04:57:39;;;;;;;13.20;6.28;;;;;;;;;;5027545;28;20036;-85
2023/12/04 05:00:06;;;;;;;13.00;5.75;;;;;;;;;;5027829;28;20040;-84
2023/12/04 05:02:32;;;;;;;10.63;5.57;;;;;;;;;;5025535;28;20489;-84
2023/12/04 05:04:58;;;;;;;11.43;5.05;;;;;;;;;;5006490;28;20134;-84
2023/12/04 05:07:24;;;;;;;12.50;5.85;;;;;;;;;;5027314;28;20524;-84
2023/12/04 05:09:50;;;;;;;13.82;7.43;;;;;;;;;;5007430;28;20123;-84
2023/12/04 05:12:16;;;;;;;11.88;5.72;;;;;;;;;;5028874;28;20041;-84
2023/12/04 05:14:42;;;;;;;12.27;6.00;;;;;;;;;;5029125;28;20037;-84
2023/12/04 05:17:08;;;;;;;12.25;5.93;;;;;;;;;;5029635;28;20346;-84
2023/12/04 05:19:34;;;;;;;11.55;5.13;;;;;;;;;;5033478;28;20057;-84
2023/12/04 05:22:00;;;;;;;8.68;4.43;;;;;;;;;;5044737;28;20047;-84
2023/12/04 05:24:26;;;;;;;16.27;5.95;;;;;;;;;;5033400;28;20084;-84
2023/12/04 05:26:52;;;;;;;13.43;5.82;;;;;;;;;;5027026;28;20059;-84
2023/12/04 05:29:18;;;;;;;16.48;6.13;;;;;;;;;;5028951;28;20056;-85
2023/12/04 05:31:44;;;;;;;13.52;5.63;;;;;;;;;;5031362;28;20095;-84
2023/12/04 05:34:10;;;;;;;12.95;6.40;;;;;;;;;;5031095;28;20033;-84
2023/12/04 05:36:36;;;;;;;11.30;5.55;;;;;;;;;;5030037;28;20043;-84
2023/12/04 05:39:02;;;;;;;13.00;5.88;;;;;;;;;;5029173;28;20029;-84
2023/12/04 05:41:28;;;;;;;11.30;5.32;;;;;;;;;;5029610;28;20052;-84
2023/12/04 05:43:54;;;;;;;11.73;5.63;;;;;;;;;;5029322;28;20033;-84
2023/12/04 05:46:20;;;;;;;14.52;7.53;;;;;;;;;;5029548;28;20052;-85
2023/12/04 05:48:46;;;;;;;13.73;6.25;;;;;;;;;;5014538;28;20056;-84
2023/12/04 05:51:12;;;;;;;12.75;5.45;;;;;;;;;;5024776;28;20049;-84
2023/12/04 05:53:38;;;;;;;12.88;6.13;;;;;;;;;;5045627;28;20049;-84
2023/12/04 05:56:06;;;;;;;10.63;5.65;;;;;;;;;;5028964;28;20120;-84
2023/12/04 05:58:32;;;;;;;13.55;6.28;;;;;;;;;;5027596;28;20048;-84
2023/12/04 06:00:58;;;;;;;12.00;6.15;;;;;;;;;;5029665;28;20037;-84
2023/12/04 06:03:24;;;;;;;12.98;5.20;;;;;;;;;;5025331;28;20492;-84
2023/12/04 06:05:50;;;;;;;11.85;5.35;;;;;;;;;;5031894;28;20033;-84
2023/12/04 06:08:16;;;;;;;14.18;6.18;;;;;;;;;;5031014;28;20052;-84
2023/12/04 06:10:42;;;;;;;12.95;6.90;;;;;;;;;;5026385;28;20439;-84
2023/12/04 06:13:08;;;;;;;10.73;5.70;;;;;;;;;;5029632;28;20844;-84
2023/12/04 06:15:34;;;;;;;12.88;5.72;;;;;;;;;;5009862;28;20041;-84
2023/12/04 06:18:00;;;;;;;10.65;5.03;;;;;;;;;;5029258;28;20047;-84
2023/12/04 06:20:26;;;;;;;12.90;6.07;;;;;;;;;;5010048;28;20415;-84
2023/12/04 06:22:53;;;;;;;15.20;5.68;;;;;;;;;;5030350;28;20037;-84
2023/12/04 06:25:19;;;;;;;13.00;5.88;;;;;;;;;;5030027;28;20428;-84
2023/12/04 06:27:45;;;;;;;14.90;6.43;;;;;;;;;;5027116;28;20419;-83
2023/12/04 06:30:11;;;;;;;9.85;5.03;;;;;;;;;;5013565;28;20068;-84
2023/12/04 06:32:37;;;;;;;12.40;6.03;;;;;;;;;;5035916;28;20098;-83
2023/12/04 06:35:04;;;;;;;10.75;5.28;;;;;;;;;;5041814;28;20037;-83
2023/12/04 06:37:30;;;;;;;13.13;6.03;;;;;;;;;;5032263;28;20037;-82
2023/12/04 06:39:57;;;;;;;11.30;5.90;;;;;;;;;;5030719;28;20072;-83
2023/12/04 06:42:23;;;;;;;12.38;5.80;;;;;;;;;;5029874;28;20041;-83
2023/12/04 06:44:49;;;;;;;11.13;4.82;;;;;;;;;;5025658;28;20072;-83
2023/12/04 06:47:16;;;;;;;10.80;5.45;;;;;;;;;;5025257;28;20053;-83
2023/12/04 06:49:42;;;;;;;11.10;5.50;;;;;;;;;;5031486;28;20136;-82
2023/12/04 06:52:08;;;;;;;10.98;5.18;;;;;;;;;;5047720;28;20053;-83
2023/12/04 06:54:34;;;;;;;14.18;5.70;;;;;;;;;;5042199;28;20049;-83
2023/12/04 06:57:01;;;;;;;9.75;4.85;;;;;;;;;;5029657;28;20037;-83
2023/12/04 06:59:27;;;;;;;9.88;5.07;;;;;;;;;;5029846;28;20037;-82
2023/12/04 07:01:53;;;;;;;11.88;5.95;;;;;;;;;;5032126;28;20064;-83
2023/12/04 07:04:21;;;;;;;15.85;6.07;;;;;;;;;;5028775;28;20040;-83
2023/12/04 07:06:48;;;;;;;11.07;5.78;;;;;;;;;;5013664;28;20048;-84
2023/12/04 07:09:14;;;;;;;9.52;4.88;;;;;;;;;;5034255;28;20049;-82
2023/12/04 07:11:40;;;;;;;14.07;5.45;;;;;;;;;;5029441;28;20045;-82
2023/12/04 07:14:06;;;;;;;8.60;4.00;;;;;;;;;;5028935;28;20033;-83
2023/12/04 07:16:39;;;;;;;10.05;5.25;;;;;;;;;;5030365;28;20043;-83
2023/12/04 07:19:05;;;;;;;9.23;4.18;;;;;;;;;;5041383;28;20038;-84
2023/12/04 07:21:31;;;;;;;11.57;5.47;;;;;;;;;;5021948;28;20043;-84
2023/12/04 07:23:57;;;;;;;10.38;5.50;;;;;;;;;;5025011;28;20057;-84
2023/12/04 07:26:23;;;;;;;9.40;4.82;;;;;;;;;;5028497;28;20067;-83
2023/12/04 07:28:49;;;;;;;13.27;6.05;;;;;;;;;;5028544;28;20045;-83
2023/12/04 07:31:15;;;;;;;13.10;4.90;;;;;;;;;;5030060;28;20068;-83
2023/12/04 07:33:41;;;;;;;10.95;4.53;;;;;;;;;;5028663;28;20037;-85
2023/12/04 07:36:07;;;;;;;9.57;5.18;;;;;;;;;;5011031;28;20049;-84
2023/12/04 07:38:33;;;;;;;9.60;4.65;;;;;;;;;;5030157;28;20037;-84
2023/12/04 07:40:59;;;;;;;10.48;5.30;;;;;;;;;;5009585;28;20090;-84
2023/12/04 07:43:25;;;;;;;12.60;5.25;;;;;;;;;;5047869;28;20040;-84
2023/12/04 07:45:51;;;;;;;13.98;5.82;;;;;;;;;;5029316;28;20048;-85
2023/12/04 07:48:17;;;;;;;10.57;5.22;;;;;;;;;;5028798;28;20488;-84
2023/12/04 07:50:43;;;;;;;13.68;5.43;;;;;;;;;;5028391;28;20040;-85
2023/12/04 07:53:11;;;;;;;12.20;5.32;;;;;;;;;;5025628;28;20038;-85
2023/12/04 07:55:37;;;;;;;10.73;5.70;;;;;;;;;;5028839;28;20042;-85
2023/12/04 07:58:04;;;;;;;10.60;4.85;;;;;;;;;;5006140;28;20033;-85
2023/12/04 08:00:30;;;;;;;10.00;4.47;;;;;;;;;;5012948;28;20033;-85
2023/12/04 08:02:56;;;;;;;10.40;4.65;;;;;;;;;;5027866;28;20120;-85
2023/12/04 08:05:22;;;;;;;12.27;5.43;;;;;;;;;;5029304;28;20045;-85
2023/12/04 08:07:48;;;;;;;10.02;4.40;;;;;;;;;;5026715;28;20047;-85
2023/12/04 08:10:14;;;;;;;13.93;5.85;;;;;;;;;;5010205;28;20083;-84
2023/12/04 08:12:40;;;;;;;11.77;5.40;;;;;;;;;;5011863;28;20474;-85
2023/12/04 08:15:06;;;;;;;12.50;5.50;;;;;;;;;;5025455;28;20048;-85
2023/12/04 08:17:33;;;;;;;8.65;4.50;;;;;;;;;;5024811;28;20125;-85
2023/12/04 08:19:59;;;;;;;12.18;5.72;;;;;;;;;;5004912;28;20144;-85
2023/12/04 08:22:25;;;;;;;12.00;5.20;;;;;;;;;;5030184;28;20091;-84
2023/12/04 08:24:51;;;;;;;10.10;5.28;;;;;;;;;;5010122;28;20494;-86
2023/12/04 08:27:17;;;;;;;9.27;5.15;;;;;;;;;;5012479;28;20045;-86
2023/12/04 08:29:43;;;;;;;9.75;4.75;;;;;;;;;;5030770;28;20128;-86
2023/12/04 08:32:09;;;;;;;12.30;5.60;;;;;;;;;;5018912;28;20064;-86
2023/12/04 08:34:35;;;;;;;9.43;4.63;;;;;;;;;;5013849;28;20485;-86
2023/12/04 08:37:01;;;;;;;10.10;4.50;;;;;;;;;;5036932;28;20132;-86
2023/12/04 08:39:27;;;;;;;9.23;4.68;;;;;;;;;;5030821;28;20128;-86
2023/12/04 08:41:53;;;;;;;8.07;4.35;;;;;;;;;;5031542;28;20061;-86
2023/12/04 08:44:18;;;;;;;10.40;4.88;;;;;;;;;;5007473;28;20131;-86
2023/12/04 08:46:45;;;;;;;8.85;4.40;;;;;;;;;;5008206;28;20445;-87
2023/12/04 08:49:11;;;;;;;8.88;4.38;;;;;;;;;;5007895;28;20053;-87
2023/12/04 08:51:37;;;;;;;12.93;5.38;;;;;;;;;;5015253;28;20067;-86
2023/12/04 08:54:03;;;;;;;10.45;4.32;;;;;;;;;;5008942;28;20500;-87
2023/12/04 08:56:29;;;;;;;8.75;4.47;;;;;;;;;;5008608;28;20080;-85
2023/12/04 08:58:55;;;;;;;11.00;4.97;;;;;;;;;;5027536;28;20041;-87
2023/12/04 09:01:22;;;;;;;9.32;4.57;;;;;;;;;;5024783;28;20037;-87
2023/12/04 09:03:48;;;;;;;9.15;5.40;;;;;;;;;;5027187;28;20424;-87
2023/12/04 09:06:15;;;;;;;12.05;4.32;;;;;;;;;;5008862;28;20078;-91
2023/12/04 09:08:42;;;;;;;9.50;4.70;;;;;;;;;;5009200;28;20041;-87
2023/12/04 09:11:08;;;;;;;6.78;3.45;;;;;;;;;;5006232;28;20076;-88
2023/12/04 09:13:37;;;;;;;7.35;4.30;;;;;;;;;;5006731;28;20492;-89
2023/12/04 09:16:03;;;;;;;8.85;4.55;;;;;;;;;;5008232;28;20412;-88
2023/12/04 09:18:29;;;;;;;6.70;3.60;;;;;;;;;;5006457;28;20040;-89
2023/12/04 09:20:55;;;;;;;8.50;4.18;;;;;;;;;;5014925;28;20059;-86
2023/12/04 09:23:21;;;;;;;7.72;4.13;;;;;;;;;;5016506;28;20125;-86
2023/12/04 09:25:47;;;;;;;7.70;3.97;;;;;;;;;;5010816;28;20040;-88
2023/12/04 09:28:13;;;;;;;10.75;4.82;;;;;;;;;;5005146;28;20407;-86
2023/12/04 09:30:39;;;;;;;8.15;3.53;;;;;;;;;;5024722;28;20527;-88
2023/12/04 09:33:06;;;;;;;10.60;5.63;;;;;;;;;;5013025;28;20039;-87
2023/12/04 09:35:32;;;;;;;10.93;4.93;;;;;;;;;;5009023;28;20037;-86
2023/12/04 09:37:58;;;;;;;9.35;4.35;;;;;;;;;;5025448;28;20099;-87
2023/12/04 09:40:24;;;;;;;8.25;4.20;;;;;;;;;;5026367;28;20033;-88
2023/12/04 09:42:51;;;;;;;8.38;4.35;;;;;;;;;;5010775;28;20064;-86
2023/12/04 09:45:19;;;;;;;7.70;3.67;;;;;;;;;;5029402;28;20364;-87
2023/12/04 09:47:46;;;;;;;6.68;3.63;;;;;;;;;;5009074;28;20036;-88
2023/12/04 09:50:12;;;;;;;9.40;4.50;;;;;;;;;;5020187;28;20104;-87
2023/12/04 09:52:38;;;;;;;7.45;3.58;;;;;;;;;;5011870;28;20098;-86
2023/12/04 09:55:05;;;;;;;6.53;3.95;;;;;;;;;;5009938;28;20048;-85
2023/12/04 09:57:31;;;;;;;8.95;4.60;;;;;;;;;;5041062;28;20569;-86
2023/12/04 09:59:59;;;;;;;8.32;4.13;;;;;;;;;;5008338;28;20373;-86
2023/12/04 10:02:26;;;;;;;6.97;4.22;;;;;;;;;;5032417;28;20077;-86
2023/12/04 10:04:52;;;;;;;7.22;2.88;;;;;;;;;;5021309;28;20052;-85
2023/12/04 10:07:18;;;;;;;8.80;4.13;;;;;;;;;;5035613;28;20044;-85
2023/12/04 10:09:44;;;;;;;8.00;4.32;;;;;;;;;;5015542;28;20830;-85
2023/12/04 10:12:10;;;;;;;6.82;3.45;;;;;;;;;;5031259;28;20041;-87
2023/12/04 10:14:37;;;;;;;7.00;3.80;;;;;;;;;;5025324;28;20046;-85
2023/12/04 10:17:23;;;;;;;7.50;3.83;;;;;;;;;;5019528;28;20086;-86
2023/12/04 10:20:04;;;;;;;5.80;3.38;;;;;;;;;;5029494;28;20040;-86
2023/12/04 10:22:30;;;;;;;7.55;4.00;;;;;;;;;;5031668;28;20064;-86
2023/12/04 10:24:56;;;;;;;8.70;4.55;;;;;;;;;;5012247;28;20472;-86
2023/12/04 10:27:26;;;;;;;9.20;4.53;;;;;;;;;;5021726;28;20041;-86
2023/12/04 10:29:53;;;;;;;7.47;4.30;;;;;;;;;;5027569;28;20491;-86
2023/12/04 10:32:23;;;;;;;8.27;4.03;;;;;;;;;;5013069;28;20047;-85
2023/12/04 10:34:49;;;;;;;6.97;4.30;;;;;;;;;;5029571;28;20037;-84
2023/12/04 10:37:16;;;;;;;8.85;4.35;;;;;;;;;;5013556;28;20042;-86
2023/12/04 10:39:47;;;;;;;8.55;4.45;;;;;;;;;;5029608;28;20392;-85
2023/12/04 10:42:13;;;;;;;6.93;3.55;;;;;;;;;;5026295;28;20029;-87
2023/12/04 10:44:41;;;;;;;7.03;3.50;;;;;;;;;;5031989;28;20045;-86
2023/12/04 10:47:07;;;;;;;7.80;3.80;;;;;;;;;;5024784;28;20049;-86
2023/12/04 10:49:34;;;;;;;6.65;3.92;;;;;;;;;;5010758;28;20040;-86
2023/12/04 10:52:01;;;;;;;7.43;3.75;;;;;;;;;;5015257;28;20033;-86
2023/12/04 10:54:27;;;;;;;6.22;3.63;;;;;;;;;;5023755;28;20044;-87
2023/12/04 10:56:53;;;;;;;8.50;3.63;;;;;;;;;;5008713;28;20061;-87
2023/12/04 10:59:31;;;;;;;6.57;3.63;;;;;;;;;;5026576;28;20037;-87
2023/12/04 11:01:58;;;;;;;6.47;3.63;;;;;;;;;;5026608;28;20041;-87
2023/12/04 11:04:27;;;;;;;6.88;3.42;;;;;;;;;;5025905;28;20112;-87
2023/12/04 11:06:53;;;;;;;6.93;3.67;;;;;;;;;;5011110;28;20041;-87
2023/12/04 11:09:21;;;;;;;5.65;3.60;;;;;;;;;;5030330;28;20041;-87
2023/12/04 11:11:49;;;;;;;6.55;3.72;;;;;;;;;;5028112;28;20041;-85
2023/12/04 11:14:18;;;;;;;6.88;3.58;;;;;;;;;;5012105;28;20511;-85
2023/12/04 11:16:48;;;;;;;5.45;3.28;;;;;;;;;;5024924;28;20033;-88
2023/12/04 11:19:19;;;;;;;6.70;3.80;;;;;;;;;;5014681;28;20524;-87
2023/12/04 11:21:46;;;;;;;5.47;3.75;;;;;;;;;;5028067;28;20033;-88
2023/12/04 11:24:13;;;;;;;8.35;3.72;;;;;;;;;;5029981;28;20045;-87
2023/12/04 11:26:40;;;;;;;5.75;3.13;;;;;;;;;;5011789;28;20044;-87
2023/12/04 11:29:07;;;;;;;5.25;3.38;;;;;;;;;;5012363;28;20032;-88
2023/12/04 11:31:33;;;;;;;8.77;3.63;;;;;;;;;;5011444;28;20061;-88
2023/12/04 11:34:03;;;;;;;5.68;2.97;;;;;;;;;;5019155;28;20045;-88
2023/12/04 11:36:29;;;;;;;6.00;3.60;;;;;;;;;;5031803;28;20557;-88
2023/12/04 11:38:56;;;;;;;7.35;3.28;;;;;;;;;;5027547;28;20061;-88
2023/12/04 11:41:23;;;;;;;4.55;2.90;;;;;;;;;;5012180;28;20127;-88
2023/12/04 11:43:51;;;;;;;6.65;3.65;;;;;;;;;;5010080;28;20087;-87
2023/12/04 11:46:25;;;;;;;7.13;3.85;;;;;;;;;;5010471;28;20098;-88
2023/12/04 11:48:51;;;;;;;5.50;3.20;;;;;;;;;;5013349;28;20088;-89
2023/12/04 11:51:36;;;;;;;7.43;3.50;;;;;;;;;;5012765;28;20052;-87
2023/12/04 11:54:04;;;;;;;6.80;3.53;;;;;;;;;;5011831;28;20044;-88
2023/12/04 11:56:30;;;;;;;5.22;3.45;;;;;;;;;;5007479;28;20104;-89
2023/12/04 11:59:03;;;;;;;6.88;4.43;;;;;;;;;;5025784;28;20046;-89
2023/12/04 12:01:29;;;;;;;6.30;3.45;;;;;;;;;;5012942;28;20038;-90
2023/12/04 12:03:59;;;;;;;7.38;3.60;;;;;;;;;;5007101;28;20029;-87
2023/12/04 12:06:25;;;;;;;5.57;3.30;;;;;;;;;;5025568;28;20037;-88
2023/12/04 12:08:51;;;;;;;6.05;3.30;;;;;;;;;;5009510;28;20224;-91
2023/12/04 12:11:17;;;;;;;4.82;3.20;;;;;;;;;;5014943;28;20095;-91
2023/12/04 12:13:44;;;;;;;7.38;3.45;;;;;;;;;;5023622;28;20446;-89
2023/12/04 12:16:11;;;;;;;6.80;3.47;;;;;;;;;;5054432;28;20036;-88
2023/12/04 12:18:39;;;;;;;7.13;3.38;;;;;;;;;;5024731;28;20016;-88
2023/12/04 12:21:06;;;;;;;7.32;4.05;;;;;;;;;;5051011;28;20088;-90
2023/12/04 12:23:33;;;;;;;5.35;3.08;;;;;;;;;;5039663;28;20021;-90
2023/12/04 12:25:59;;;;;;;8.23;3.67;;;;;;;;;;5048947;28;20025;-87
2023/12/04 12:28:25;;;;;;;5.53;3.30;;;;;;;;;;5043777;28;20053;-89
2023/12/04 12:30:53;;;;;;;6.75;3.60;;;;;;;;;;5035185;28;20025;-89
2023/12/04 12:33:20;;;;;;;6.53;3.65;;;;;;;;;;5038799;28;20085;-90
2023/12/04 12:35:47;;;;;;;5.32;3.22;;;;;;;;;;5039038;28;20029;-90
2023/12/04 12:38:14;;;;;;;5.80;2.95;;;;;;;;;;5034618;28;20033;-91
2023/12/04 12:40:40;;;;;;;4.13;2.80;;;;;;;;;;5030403;28;20076;-90
2023/12/04 12:43:07;;;;;;;5.20;3.13;;;;;;;;;;5025733;28;20045;-90
2023/12/04 12:45:50;;;;;;;7.63;3.47;;;;;;;;;;5031918;28;20086;-90
2023/12/04 12:48:16;;;;;;;4.95;3.30;;;;;;;;;;5012273;28;20416;-89
2023/12/04 12:50:43;;;;;;;5.38;2.85;;;;;;;;;;5027851;28;20091;-90
2023/12/04 12:53:10;;;;;;;7.40;3.45;;;;;;;;;;5030213;28;20120;-90
2023/12/04 12:55:43;;;;;;;3.80;2.78;;;;;;;;;;5009232;28;20041;-90
2023/12/04 12:58:15;;;;;;;5.57;3.45;;;;;;;;;;5012284;28;20063;-89
2023/12/04 13:00:43;;;;;;;7.10;3.83;;;;;;;;;;5016651;28;20036;-90
2023/12/04 13:03:18;;;;;;;5.75;3.72;;;;;;;;;;5029717;28;20515;-91
2023/12/04 13:05:47;;;;;;;5.13;2.75;;;;;;;;;;5037452;28;20052;-92
2023/12/04 13:08:14;;;;;;;6.55;3.70;;;;;;;;;;5034326;28;20056;-89
2023/12/04 13:10:41;;;;;;;6.20;3.60;;;;;;;;;;5017736;28;20063;-91
2023/12/04 13:13:11;;;;;;;6.20;3.38;;;;;;;;;;5016425;28;20037;-89
2023/12/04 13:15:37;;;;;;;7.80;3.25;;;;;;;;;;5028219;28;20041;-88
2023/12/04 13:18:03;;;;;;;6.13;3.53;;;;;;;;;;5026960;28;20400;-90
2023/12/04 13:20:29;;;;;;;7.10;3.30;;;;;;;;;;5018404;28;20039;-89
2023/12/04 13:22:55;;;;;;;5.80;2.90;;;;;;;;;;5032494;28;20454;-89
2023/12/04 13:25:22;;;;;;;5.70;3.60;;;;;;;;;;5004095;28;20040;-89
2023/12/04 13:27:49;;;;;;;6.90;3.60;;;;;;;;;;5027905;28;20044;-89
2023/12/04 13:30:15;;;;;;;6.38;3.47;;;;;;;;;;5005646;28;20046;-89
2023/12/04 13:32:41;;;;;;;7.07;3.90;;;;;;;;;;5008541;28;20185;-89
2023/12/04 13:35:07;;;;;;;4.38;2.75;;;;;;;;;;5012631;28;20131;-89
2023/12/04 13:37:36;;;;;;;5.13;3.00;;;;;;;;;;5025142;28;20037;-89
2023/12/04 13:40:15;;;;;;;5.45;3.22;;;;;;;;;;5007496;28;20492;-88
2023/12/04 13:45:26;;;;;;;7.80;3.60;;;;;;;;;;5027910;28;20076;-87
2023/12/04 13:47:53;;;;;;;5.00;3.08;;;;;;;;;;5030603;28;20037;-88
2023/12/04 13:50:19;;;;;;;5.32;3.17;;;;;;;;;;5029675;28;20072;-87
2023/12/04 13:52:52;;;;;;;7.07;3.40;;;;;;;;;;5031116;28;20183;-87
2023/12/04 13:55:34;;;;;;;6.43;3.13;;;;;;;;;;5008662;28;20046;-87
2023/12/04 14:00:26;;;;;;;6.13;3.47;;;;;;;;;;5026229;28;20033;-87
2023/12/04 14:03:04;;;;;;;5.70;3.25;;;;;;;;;;5011026;28;20487;-87
2023/12/04 14:05:33;;;;;;;5.53;2.65;;;;;;;;;;5012970;28;20036;-88
2023/12/04 14:08:00;;;;;;;5.85;3.35;;;;;;;;;;5030613;28;20037;-86
2023/12/04 14:10:26;;;;;;;7.70;3.58;;;;;;;;;;5014721;28;20076;-90
2023/12/04 14:12:52;;;;;;;4.75;3.10;;;;;;;;;;5011606;28;20128;-88
2023/12/04 14:15:19;;;;;;;6.00;3.05;;;;;;;;;;5015288;28;20047;-88
2023/12/04 14:17:49;;;;;;;7.45;3.67;;;;;;;;;;5012639;28;20502;-89
2023/12/04 14:20:17;;;;;;;5.20;3.28;;;;;;;;;;5010282;28;20502;-88
2023/12/04 14:22:45;;;;;;;6.75;3.47;;;;;;;;;;5018474;28;20047;-87
2023/12/04 14:25:11;;;;;;;6.90;3.78;;;;;;;;;;5030241;28;20461;-87
2023/12/04 14:27:40;;;;;;;5.53;2.83;;;;;;;;;;5018604;28;20047;-88
2023/12/04 14:30:08;;;;;;;5.57;2.83;;;;;;;;;;5039885;28;20098;-87
2023/12/04 14:32:34;;;;;;;6.40;3.35;;;;;;;;;;5019822;28;20040;-87
2023/12/04 14:35:00;;;;;;;7.93;3.30;;;;;;;;;;5033530;28;20041;-87
2023/12/04 14:37:26;;;;;;;4.90;2.92;;;;;;;;;;5011428;28;20040;-87